Georgetown, Louisiana
Current Conditions -  °F | °C
As of 5:53 AM on Sunday 23 Nov 2014 (Local Time) from KESF Reporting Station
Light Rain Light Rain  
Wind Chill: 63°   Ceiling: 600
Heat Index: 63°   Visibility: 10mi
Dew Point: 61°   Wind: 13mph
Humidity: 93%   Direction: 70°ENE
Pressure: 29.6"   Gusts: 20mph
Location:  31.76°N, 92.38°W
Report Text: KESF 231153Z AUTO 07011G17KT 10SM -RA BKN006 OVC011 17/16 A2960 RMK AO2 CIG 004V008 PRESFR SLP021 P0020 60057 70058 T01720161 10178 20172 58049
Loading
Personal Weather Stations






























Interactive Weather Map New forecast layout! Learn more

10-Day Weather Forecast

Advertisements
Track Severe Weather on mobile